sensor_id;sensor_type;location;lat;lon;timestamp;temperature;humidity
49711;DHT22;35602;44.534;18.696;2022-09-09T00:10:34;25.80;63.30
49711;DHT22;35602;44.534;18.696;2022-09-09T00:22:24;25.80;63.30
49711;DHT22;35602;44.534;18.696;2022-09-09T00:27:49;25.80;63.30
49711;DHT22;35602;44.534;18.696;2022-09-09T00:32:59;25.80;63.30
49711;DHT22;35602;44.534;18.696;2022-09-09T00:38:14;25.80;63.30
49711;DHT22;35602;44.534;18.696;2022-09-09T00:43:37;25.80;63.30
49711;DHT22;35602;44.534;18.696;2022-09-09T00:50:01;25.80;63.30
49711;DHT22;35602;44.534;18.696;2022-09-09T00:55:12;25.80;63.30
49711;DHT22;35602;44.534;18.696;2022-09-09T01:06:32;25.80;63.30
49711;DHT22;35602;44.534;18.696;2022-09-09T01:13:08;25.80;63.30
49711;DHT22;35602;44.534;18.696;2022-09-09T01:18:17;25.80;63.30
49711;DHT22;35602;44.534;18.696;2022-09-09T01:28:54;25.80;63.40
49711;DHT22;35602;44.534;18.696;2022-09-09T01:33:55;25.80;63.40
49711;DHT22;35602;44.534;18.696;2022-09-09T01:38:56;25.80;63.30
49711;DHT22;35602;44.534;18.696;2022-09-09T01:43:57;25.70;63.30
49711;DHT22;35602;44.534;18.696;2022-09-09T01:48:59;25.80;63.40
49711;DHT22;35602;44.534;18.696;2022-09-09T01:54:01;25.70;63.30
49711;DHT22;35602;44.534;18.696;2022-09-09T01:59:31;25.80;63.30
49711;DHT22;35602;44.534;18.696;2022-09-09T02:04:44;25.70;63.30
49711;DHT22;35602;44.534;18.696;2022-09-09T02:09:49;25.70;63.30
49711;DHT22;35602;44.534;18.696;2022-09-09T02:14:56;25.70;63.30
49711;DHT22;35602;44.534;18.696;2022-09-09T02:20:06;25.70;63.30
49711;DHT22;35602;44.534;18.696;2022-09-09T02:25:10;25.70;63.30
49711;DHT22;35602;44.534;18.696;2022-09-09T02:30:12;25.70;63.40
49711;DHT22;35602;44.534;18.696;2022-09-09T02:35:17;25.70;63.40
49711;DHT22;35602;44.534;18.696;2022-09-09T02:40:20;25.70;63.40
49711;DHT22;35602;44.534;18.696;2022-09-09T02:45:25;25.70;63.40
49711;DHT22;35602;44.534;18.696;2022-09-09T02:50:38;25.70;63.40
49711;DHT22;35602;44.534;18.696;2022-09-09T02:56:04;25.70;63.50
49711;DHT22;35602;44.534;18.696;2022-09-09T03:01:06;25.70;63.50
49711;DHT22;35602;44.534;18.696;2022-09-09T03:06:07;25.70;63.50
49711;DHT22;35602;44.534;18.696;2022-09-09T03:11:08;25.70;63.50
49711;DHT22;35602;44.534;18.696;2022-09-09T03:16:09;25.70;63.50
49711;DHT22;35602;44.534;18.696;2022-09-09T03:21:10;25.70;63.60
49711;DHT22;35602;44.534;18.696;2022-09-09T03:26:11;25.70;63.60
49711;DHT22;35602;44.534;18.696;2022-09-09T03:31:12;25.70;63.70
49711;DHT22;35602;44.534;18.696;2022-09-09T03:36:14;25.70;63.60
49711;DHT22;35602;44.534;18.696;2022-09-09T03:41:15;25.70;63.70
49711;DHT22;35602;44.534;18.696;2022-09-09T03:46:16;25.70;63.70
49711;DHT22;35602;44.534;18.696;2022-09-09T03:51:17;25.70;64.30
49711;DHT22;35602;44.534;18.696;2022-09-09T03:56:18;25.70;63.70
49711;DHT22;35602;44.534;18.696;2022-09-09T04:01:21;25.70;63.70
49711;DHT22;35602;44.534;18.696;2022-09-09T04:06:25;25.70;63.70
49711;DHT22;35602;44.534;18.696;2022-09-09T04:11:26;25.70;63.80
49711;DHT22;35602;44.534;18.696;2022-09-09T04:16:27;25.70;63.80
49711;DHT22;35602;44.534;18.696;2022-09-09T04:21:28;25.70;63.80
49711;DHT22;35602;44.534;18.696;2022-09-09T04:26:28;25.70;63.80
49711;DHT22;35602;44.534;18.696;2022-09-09T04:31:29;25.70;63.80
49711;DHT22;35602;44.534;18.696;2022-09-09T04:36:31;25.70;63.90
49711;DHT22;35602;44.534;18.696;2022-09-09T04:41:34;25.70;63.90
49711;DHT22;35602;44.534;18.696;2022-09-09T04:46:35;25.70;63.90
49711;DHT22;35602;44.534;18.696;2022-09-09T04:51:36;25.70;63.90
49711;DHT22;35602;44.534;18.696;2022-09-09T04:56:37;25.70;63.90
49711;DHT22;35602;44.534;18.696;2022-09-09T05:01:38;25.60;63.90
49711;DHT22;35602;44.534;18.696;2022-09-09T05:06:39;25.70;63.90
49711;DHT22;35602;44.534;18.696;2022-09-09T05:11:40;25.60;63.80
49711;DHT22;35602;44.534;18.696;2022-09-09T05:16:42;25.60;63.80
49711;DHT22;35602;44.534;18.696;2022-09-09T05:21:44;25.70;64.00
49711;DHT22;35602;44.534;18.696;2022-09-09T05:26:46;25.60;63.90
49711;DHT22;35602;44.534;18.696;2022-09-09T05:31:46;25.60;63.90
49711;DHT22;35602;44.534;18.696;2022-09-09T05:36:47;25.60;63.90
49711;DHT22;35602;44.534;18.696;2022-09-09T05:41:48;25.60;63.80
49711;DHT22;35602;44.534;18.696;2022-09-09T05:46:49;25.60;63.90
49711;DHT22;35602;44.534;18.696;2022-09-09T05:51:50;25.60;63.90
49711;DHT22;35602;44.534;18.696;2022-09-09T05:56:51;25.60;63.90
49711;DHT22;35602;44.534;18.696;2022-09-09T06:01:54;25.60;63.90
49711;DHT22;35602;44.534;18.696;2022-09-09T06:06:54;25.60;63.90
49711;DHT22;35602;44.534;18.696;2022-09-09T06:11:55;25.60;63.90
49711;DHT22;35602;44.534;18.696;2022-09-09T06:16:58;25.60;63.90
49711;DHT22;35602;44.534;18.696;2022-09-09T06:21:59;25.60;63.90
49711;DHT22;35602;44.534;18.696;2022-09-09T06:27:00;25.60;63.90
49711;DHT22;35602;44.534;18.696;2022-09-09T06:32:01;25.60;63.90
49711;DHT22;35602;44.534;18.696;2022-09-09T06:37:02;25.60;63.90
49711;DHT22;35602;44.534;18.696;2022-09-09T06:42:03;25.60;63.90
49711;DHT22;35602;44.534;18.696;2022-09-09T06:47:04;25.60;63.90
49711;DHT22;35602;44.534;18.696;2022-09-09T06:52:05;25.60;63.90
49711;DHT22;35602;44.534;18.696;2022-09-09T06:57:06;25.60;63.90
49711;DHT22;35602;44.534;18.696;2022-09-09T07:02:07;25.60;65.40
49711;DHT22;35602;44.534;18.696;2022-09-09T07:07:08;25.60;66.30
49711;DHT22;35602;44.534;18.696;2022-09-09T07:12:12;25.60;66.70
49711;DHT22;35602;44.534;18.696;2022-09-09T07:17:13;25.70;66.70
49711;DHT22;35602;44.534;18.696;2022-09-09T07:22:13;25.70;67.00
49711;DHT22;35602;44.534;18.696;2022-09-09T07:27:15;25.70;66.60
49711;DHT22;35602;44.534;18.696;2022-09-09T07:32:15;25.70;66.60
49711;DHT22;35602;44.534;18.696;2022-09-09T07:37:18;25.70;66.60
49711;DHT22;35602;44.534;18.696;2022-09-09T07:42:19;25.70;66.60
49711;DHT22;35602;44.534;18.696;2022-09-09T07:47:20;25.80;66.40
49711;DHT22;35602;44.534;18.696;2022-09-09T07:52:21;25.80;66.20
49711;DHT22;35602;44.534;18.696;2022-09-09T07:57:22;25.80;66.40
49711;DHT22;35602;44.534;18.696;2022-09-09T08:02:25;25.80;66.40
49711;DHT22;35602;44.534;18.696;2022-09-09T08:07:28;25.90;66.50
49711;DHT22;35602;44.534;18.696;2022-09-09T08:12:30;25.90;66.40
49711;DHT22;35602;44.534;18.696;2022-09-09T08:17:31;25.90;66.50
49711;DHT22;35602;44.534;18.696;2022-09-09T08:22:32;25.90;66.70
49711;DHT22;35602;44.534;18.696;2022-09-09T08:27:33;26.00;66.70
49711;DHT22;35602;44.534;18.696;2022-09-09T08:32:34;26.00;66.80
49711;DHT22;35602;44.534;18.696;2022-09-09T08:37:35;26.00;66.80
49711;DHT22;35602;44.534;18.696;2022-09-09T08:42:49;26.00;66.90
49711;DHT22;35602;44.534;18.696;2022-09-09T08:48:52;26.00;66.80
49711;DHT22;35602;44.534;18.696;2022-09-09T08:53:59;26.10;66.90
49711;DHT22;35602;44.534;18.696;2022-09-09T08:59:02;26.10;66.90
49711;DHT22;35602;44.534;18.696;2022-09-09T09:06:01;26.10;66.90
49711;DHT22;35602;44.534;18.696;2022-09-09T09:11:05;26.20;67.80
49711;DHT22;35602;44.534;18.696;2022-09-09T09:17:11;26.20;67.20
49711;DHT22;35602;44.534;18.696;2022-09-09T09:22:59;26.30;67.30
49711;DHT22;35602;44.534;18.696;2022-09-09T09:28:12;26.20;67.10
49711;DHT22;35602;44.534;18.696;2022-09-09T09:33:22;26.20;67.00
49711;DHT22;35602;44.534;18.696;2022-09-09T09:38:25;26.20;67.00
49711;DHT22;35602;44.534;18.696;2022-09-09T09:43:37;26.20;66.80
49711;DHT22;35602;44.534;18.696;2022-09-09T09:48:38;26.20;66.70
49711;DHT22;35602;44.534;18.696;2022-09-09T09:53:38;26.20;66.50
49711;DHT22;35602;44.534;18.696;2022-09-09T10:07:45;26.20;66.50
49711;DHT22;35602;44.534;18.696;2022-09-09T10:13:15;26.30;66.40
49711;DHT22;35602;44.534;18.696;2022-09-09T10:19:42;26.30;66.30
49711;DHT22;35602;44.534;18.696;2022-09-09T10:25:03;26.30;66.40
49711;DHT22;35602;44.534;18.696;2022-09-09T10:30:17;26.30;66.20
49711;DHT22;35602;44.534;18.696;2022-09-09T10:35:41;26.30;66.00
49711;DHT22;35602;44.534;18.696;2022-09-09T10:41:56;26.30;65.80
49711;DHT22;35602;44.534;18.696;2022-09-09T10:47:41;26.40;65.70
49711;DHT22;35602;44.534;18.696;2022-09-09T10:53:46;26.40;65.40
49711;DHT22;35602;44.534;18.696;2022-09-09T10:59:11;26.40;65.20
49711;DHT22;35602;44.534;18.696;2022-09-09T11:04:24;26.40;65.20
49711;DHT22;35602;44.534;18.696;2022-09-09T11:09:30;26.40;65.20
49711;DHT22;35602;44.534;18.696;2022-09-09T11:14:55;26.40;65.20
49711;DHT22;35602;44.534;18.696;2022-09-09T11:19:58;26.40;65.20
49711;DHT22;35602;44.534;18.696;2022-09-09T11:25:04;26.40;65.30
49711;DHT22;35602;44.534;18.696;2022-09-09T11:41:48;26.40;65.60
49711;DHT22;35602;44.534;18.696;2022-09-09T11:46:51;26.40;65.70
49711;DHT22;35602;44.534;18.696;2022-09-09T11:51:52;26.40;65.30
49711;DHT22;35602;44.534;18.696;2022-09-09T11:56:53;26.40;65.00
49711;DHT22;35602;44.534;18.696;2022-09-09T12:02:02;26.40;65.10
49711;DHT22;35602;44.534;18.696;2022-09-09T12:07:50;26.40;65.00
49711;DHT22;35602;44.534;18.696;2022-09-09T12:12:54;26.40;65.00
49711;DHT22;35602;44.534;18.696;2022-09-09T12:17:57;26.40;64.90
49711;DHT22;35602;44.534;18.696;2022-09-09T12:35:22;26.50;65.40
49711;DHT22;35602;44.534;18.696;2022-09-09T12:40:27;26.50;65.30
49711;DHT22;35602;44.534;18.696;2022-09-09T12:45:32;26.50;65.70
49711;DHT22;35602;44.534;18.696;2022-09-09T12:50:38;26.50;65.40
49711;DHT22;35602;44.534;18.696;2022-09-09T12:55:56;26.60;65.50
49711;DHT22;35602;44.534;18.696;2022-09-09T13:01:23;26.60;65.60
49711;DHT22;35602;44.534;18.696;2022-09-09T13:06:31;26.60;65.80
49711;DHT22;35602;44.534;18.696;2022-09-09T13:11:39;26.60;65.50
49711;DHT22;35602;44.534;18.696;2022-09-09T13:16:40;26.60;64.80
49711;DHT22;35602;44.534;18.696;2022-09-09T13:21:41;26.70;64.60
49711;DHT22;35602;44.534;18.696;2022-09-09T13:26:43;26.70;64.30
49711;DHT22;35602;44.534;18.696;2022-09-09T13:31:45;26.70;64.30
49711;DHT22;35602;44.534;18.696;2022-09-09T13:36:47;26.70;64.30
49711;DHT22;35602;44.534;18.696;2022-09-09T13:41:48;26.70;64.20
49711;DHT22;35602;44.534;18.696;2022-09-09T13:47:21;26.70;63.30
49711;DHT22;35602;44.534;18.696;2022-09-09T13:52:24;26.70;63.70
49711;DHT22;35602;44.534;18.696;2022-09-09T13:57:27;26.80;63.70
49711;DHT22;35602;44.534;18.696;2022-09-09T14:02:28;26.80;63.50
49711;DHT22;35602;44.534;18.696;2022-09-09T14:07:31;26.80;63.30
49711;DHT22;35602;44.534;18.696;2022-09-09T14:12:33;26.80;63.10
49711;DHT22;35602;44.534;18.696;2022-09-09T14:17:34;26.80;63.40
49711;DHT22;35602;44.534;18.696;2022-09-09T14:22:37;26.70;63.70
49711;DHT22;35602;44.534;18.696;2022-09-09T14:27:39;26.70;63.80
49711;DHT22;35602;44.534;18.696;2022-09-09T14:32:43;26.60;63.90
49711;DHT22;35602;44.534;18.696;2022-09-09T14:37:44;26.60;64.10
49711;DHT22;35602;44.534;18.696;2022-09-09T14:42:45;26.50;64.10
49711;DHT22;35602;44.534;18.696;2022-09-09T14:47:46;26.50;64.20
49711;DHT22;35602;44.534;18.696;2022-09-09T14:52:47;26.50;64.20
49711;DHT22;35602;44.534;18.696;2022-09-09T14:57:48;26.50;64.30
49711;DHT22;35602;44.534;18.696;2022-09-09T15:02:52;26.50;64.40
49711;DHT22;35602;44.534;18.696;2022-09-09T15:07:53;26.40;64.50
49711;DHT22;35602;44.534;18.696;2022-09-09T15:12:54;26.40;64.40
49711;DHT22;35602;44.534;18.696;2022-09-09T15:17:55;26.40;64.20
49711;DHT22;35602;44.534;18.696;2022-09-09T15:22:56;26.40;64.60
49711;DHT22;35602;44.534;18.696;2022-09-09T15:27:56;26.40;64.60
49711;DHT22;35602;44.534;18.696;2022-09-09T15:32:57;26.40;64.60
49711;DHT22;35602;44.534;18.696;2022-09-09T15:38:02;26.30;65.20
49711;DHT22;35602;44.534;18.696;2022-09-09T15:43:05;26.30;64.60
49711;DHT22;35602;44.534;18.696;2022-09-09T15:48:06;26.40;64.70
49711;DHT22;35602;44.534;18.696;2022-09-09T15:53:06;26.30;64.70
49711;DHT22;35602;44.534;18.696;2022-09-09T15:58:07;26.30;64.80
49711;DHT22;35602;44.534;18.696;2022-09-09T16:03:08;26.30;64.90
49711;DHT22;35602;44.534;18.696;2022-09-09T16:08:09;26.30;64.80
49711;DHT22;35602;44.534;18.696;2022-09-09T16:13:10;26.30;64.80
49711;DHT22;35602;44.534;18.696;2022-09-09T16:18:14;26.30;64.90
49711;DHT22;35602;44.534;18.696;2022-09-09T16:23:15;26.30;65.00
49711;DHT22;35602;44.534;18.696;2022-09-09T16:28:17;26.30;65.00
49711;DHT22;35602;44.534;18.696;2022-09-09T16:33:18;26.30;65.10
49711;DHT22;35602;44.534;18.696;2022-09-09T16:38:19;26.20;65.00
49711;DHT22;35602;44.534;18.696;2022-09-09T16:43:20;26.20;65.00
49711;DHT22;35602;44.534;18.696;2022-09-09T16:48:21;26.20;65.00
49711;DHT22;35602;44.534;18.696;2022-09-09T16:53:22;26.20;65.20
49711;DHT22;35602;44.534;18.696;2022-09-09T16:58:23;26.30;65.20
49711;DHT22;35602;44.534;18.696;2022-09-09T17:03:23;26.20;65.20
49711;DHT22;35602;44.534;18.696;2022-09-09T17:08:24;26.20;65.20
49711;DHT22;35602;44.534;18.696;2022-09-09T17:13:25;26.20;65.30
49711;DHT22;35602;44.534;18.696;2022-09-09T17:18:27;26.20;65.30
49711;DHT22;35602;44.534;18.696;2022-09-09T17:23:28;26.20;65.30
49711;DHT22;35602;44.534;18.696;2022-09-09T17:28:29;26.20;65.40
49711;DHT22;35602;44.534;18.696;2022-09-09T17:33:33;26.20;65.40
49711;DHT22;35602;44.534;18.696;2022-09-09T17:38:35;26.20;65.40
49711;DHT22;35602;44.534;18.696;2022-09-09T17:43:36;26.20;65.50
49711;DHT22;35602;44.534;18.696;2022-09-09T17:48:38;26.20;65.50
49711;DHT22;35602;44.534;18.696;2022-09-09T17:53:42;26.20;65.50
49711;DHT22;35602;44.534;18.696;2022-09-09T17:58:43;26.20;65.50
49711;DHT22;35602;44.534;18.696;2022-09-09T18:03:45;26.20;65.50
49711;DHT22;35602;44.534;18.696;2022-09-09T18:08:52;26.20;65.50
49711;DHT22;35602;44.534;18.696;2022-09-09T18:13:57;26.10;65.50
49711;DHT22;35602;44.534;18.696;2022-09-09T18:19:00;26.20;65.50
49711;DHT22;35602;44.534;18.696;2022-09-09T18:24:05;26.20;65.60
49711;DHT22;35602;44.534;18.696;2022-09-09T18:29:08;26.10;65.50
49711;DHT22;35602;44.534;18.696;2022-09-09T18:34:11;26.10;65.50
49711;DHT22;35602;44.534;18.696;2022-09-09T18:39:15;26.10;65.50
49711;DHT22;35602;44.534;18.696;2022-09-09T18:44:22;26.10;65.50
49711;DHT22;35602;44.534;18.696;2022-09-09T18:49:24;26.10;65.50
49711;DHT22;35602;44.534;18.696;2022-09-09T18:54:27;26.10;65.50
49711;DHT22;35602;44.534;18.696;2022-09-09T18:59:30;26.10;65.60
49711;DHT22;35602;44.534;18.696;2022-09-09T19:04:31;26.10;65.60
49711;DHT22;35602;44.534;18.696;2022-09-09T19:09:33;26.10;65.60
49711;DHT22;35602;44.534;18.696;2022-09-09T19:14:34;26.10;65.60
49711;DHT22;35602;44.534;18.696;2022-09-09T19:19:34;26.10;65.60
49711;DHT22;35602;44.534;18.696;2022-09-09T19:24:35;26.10;65.60
49711;DHT22;35602;44.534;18.696;2022-09-09T19:29:37;26.10;65.80
49711;DHT22;35602;44.534;18.696;2022-09-09T19:34:42;26.10;65.80
49711;DHT22;35602;44.534;18.696;2022-09-09T19:39:43;26.10;65.70
49711;DHT22;35602;44.534;18.696;2022-09-09T19:44:45;26.10;65.80
49711;DHT22;35602;44.534;18.696;2022-09-09T19:49:46;26.10;65.80
49711;DHT22;35602;44.534;18.696;2022-09-09T19:54:47;26.10;65.80
49711;DHT22;35602;44.534;18.696;2022-09-09T19:59:48;26.10;65.80
49711;DHT22;35602;44.534;18.696;2022-09-09T20:04:52;26.00;65.80
49711;DHT22;35602;44.534;18.696;2022-09-09T20:09:53;26.10;65.90
49711;DHT22;35602;44.534;18.696;2022-09-09T20:14:54;26.00;65.90
49711;DHT22;35602;44.534;18.696;2022-09-09T20:19:55;26.10;66.00
49711;DHT22;35602;44.534;18.696;2022-09-09T20:24:59;26.10;65.90
49711;DHT22;35602;44.534;18.696;2022-09-09T20:30:01;26.00;65.90
49711;DHT22;35602;44.534;18.696;2022-09-09T20:35:01;26.00;65.90
49711;DHT22;35602;44.534;18.696;2022-09-09T20:40:02;26.00;65.90
49711;DHT22;35602;44.534;18.696;2022-09-09T20:45:04;26.00;66.00
49711;DHT22;35602;44.534;18.696;2022-09-09T20:50:05;26.00;66.00
49711;DHT22;35602;44.534;18.696;2022-09-09T20:55:08;26.00;66.00
49711;DHT22;35602;44.534;18.696;2022-09-09T21:00:12;26.00;66.00
49711;DHT22;35602;44.534;18.696;2022-09-09T21:05:15;26.00;66.00
49711;DHT22;35602;44.534;18.696;2022-09-09T21:10:16;26.00;66.10
49711;DHT22;35602;44.534;18.696;2022-09-09T21:15:17;26.00;66.10
49711;DHT22;35602;44.534;18.696;2022-09-09T21:20:18;26.00;66.10
49711;DHT22;35602;44.534;18.696;2022-09-09T21:25:19;26.00;66.20
49711;DHT22;35602;44.534;18.696;2022-09-09T21:30:20;26.00;66.20
49711;DHT22;35602;44.534;18.696;2022-09-09T21:35:21;26.00;66.10
49711;DHT22;35602;44.534;18.696;2022-09-09T21:40:22;26.00;66.10
49711;DHT22;35602;44.534;18.696;2022-09-09T21:45:23;26.00;66.10
49711;DHT22;35602;44.534;18.696;2022-09-09T21:50:25;26.00;66.20
49711;DHT22;35602;44.534;18.696;2022-09-09T21:55:26;26.00;66.20
49711;DHT22;35602;44.534;18.696;2022-09-09T22:00:26;26.00;66.20
49711;DHT22;35602;44.534;18.696;2022-09-09T22:05:28;26.00;66.90
49711;DHT22;35602;44.534;18.696;2022-09-09T22:10:30;26.00;66.30
49711;DHT22;35602;44.534;18.696;2022-09-09T22:15:31;26.00;66.20
49711;DHT22;35602;44.534;18.696;2022-09-09T22:20:33;26.00;66.30
49711;DHT22;35602;44.534;18.696;2022-09-09T22:25:40;26.00;66.30
49711;DHT22;35602;44.534;18.696;2022-09-09T22:30:42;26.00;66.20
49711;DHT22;35602;44.534;18.696;2022-09-09T22:35:42;26.00;66.20
49711;DHT22;35602;44.534;18.696;2022-09-09T22:40:43;26.00;66.30
49711;DHT22;35602;44.534;18.696;2022-09-09T22:45:45;25.90;66.20
49711;DHT22;35602;44.534;18.696;2022-09-09T22:50:46;26.00;66.30
49711;DHT22;35602;44.534;18.696;2022-09-09T22:55:58;26.00;66.30
49711;DHT22;35602;44.534;18.696;2022-09-09T23:01:00;26.00;66.30
49711;DHT22;35602;44.534;18.696;2022-09-09T23:06:09;25.90;66.20
49711;DHT22;35602;44.534;18.696;2022-09-09T23:11:11;26.00;66.20
49711;DHT22;35602;44.534;18.696;2022-09-09T23:16:18;25.90;66.20
49711;DHT22;35602;44.534;18.696;2022-09-09T23:21:20;26.00;66.40
49711;DHT22;35602;44.534;18.696;2022-09-09T23:26:23;26.00;66.30
49711;DHT22;35602;44.534;18.696;2022-09-09T23:31:26;26.00;66.30
49711;DHT22;35602;44.534;18.696;2022-09-09T23:36:29;25.90;66.20
49711;DHT22;35602;44.534;18.696;2022-09-09T23:41:31;26.00;66.20
49711;DHT22;35602;44.534;18.696;2022-09-09T23:46:34;26.00;66.20
49711;DHT22;35602;44.534;18.696;2022-09-09T23:51:36;25.90;66.20
49711;DHT22;35602;44.534;18.696;2022-09-09T23:56:39;25.90;66.20
